createdAt,value
2023-02-05T00:00:06.022Z,-2.8
2023-02-05T00:01:06.429Z,-2.8
2023-02-05T00:02:06.352Z,-2.8
2023-02-05T00:03:06.839Z,-2.8
2023-02-05T00:04:06.450Z,-2.8
2023-02-05T00:05:05.856Z,-2.8
2023-02-05T00:06:06.456Z,-2.8
2023-02-05T00:07:05.953Z,-2.8
2023-02-05T00:08:06.713Z,-2.8
2023-02-05T00:09:06.092Z,-3
2023-02-05T00:10:05.859Z,-2.9
2023-02-05T00:11:06.076Z,-2.8
2023-02-05T00:12:05.869Z,-2.9
2023-02-05T00:13:06.447Z,-2.9
2023-02-05T00:14:05.956Z,-2.9
2023-02-05T00:15:06.625Z,-2.9
2023-02-05T00:16:05.803Z,-2.9
2023-02-05T00:17:06.297Z,-2.9
2023-02-05T00:18:05.926Z,-2.9
2023-02-05T00:19:06.340Z,-3
2023-02-05T00:20:06.492Z,-3
2023-02-05T00:21:05.930Z,-3
2023-02-05T00:22:06.738Z,-3
2023-02-05T00:23:06.444Z,-3
2023-02-05T00:24:06.386Z,-3
2023-02-05T00:25:06.043Z,-3
2023-02-05T00:26:06.021Z,-3
2023-02-05T00:27:05.892Z,-3.1
2023-02-05T00:28:06.921Z,-3.1
2023-02-05T00:29:05.928Z,-3
2023-02-05T00:30:06.649Z,-3.1
2023-02-05T00:31:06.150Z,-3
2023-02-05T00:32:06.532Z,-3.1
2023-02-05T00:33:06.108Z,-3.2
2023-02-05T00:34:06.090Z,-3.1
2023-02-05T00:35:05.717Z,-3.2
2023-02-05T00:36:06.700Z,-3.2
2023-02-05T00:37:05.779Z,-3.1
2023-02-05T00:38:06.415Z,-3.1
2023-02-05T00:39:06.283Z,-3.1
2023-02-05T00:40:05.858Z,-3.2
2023-02-05T00:41:06.688Z,-3.2
2023-02-05T00:42:06.117Z,-3.2
2023-02-05T00:43:05.694Z,-3.2
2023-02-05T00:44:06.106Z,-3.2
2023-02-05T00:45:06.750Z,-4
2023-02-05T00:46:06.675Z,-3.2
2023-02-05T00:47:06.128Z,-3.2
2023-02-05T00:48:06.607Z,-3.2
2023-02-05T00:49:06.161Z,-3.2
2023-02-05T00:50:06.077Z,-4
2023-02-05T00:51:06.017Z,-3.2
2023-02-05T00:52:06.591Z,-4
2023-02-05T00:53:06.106Z,-4
2023-02-05T00:54:06.136Z,-4
2023-02-05T00:55:06.560Z,-3.2
2023-02-05T00:56:06.635Z,-4
2023-02-05T00:57:05.743Z,-3.3
2023-02-05T00:58:06.231Z,-3.3
2023-02-05T00:59:05.950Z,-3.3
2023-02-05T01:00:06.464Z,-3.3
2023-02-05T01:01:06.810Z,-3.4
2023-02-05T01:02:05.867Z,-3.4
2023-02-05T01:03:06.543Z,-4
2023-02-05T01:04:05.961Z,-4
2023-02-05T01:05:06.367Z,-3.4
2023-02-05T01:06:05.848Z,-4
2023-02-05T01:07:06.621Z,-4
2023-02-05T01:08:06.095Z,-4
2023-02-05T01:09:06.620Z,-3.4
2023-02-05T01:10:06.184Z,-3.4
2023-02-05T01:11:06.705Z,-3.4
2023-02-05T01:12:05.985Z,-3.4
2023-02-05T01:13:06.683Z,-3.5
2023-02-05T01:14:06.084Z,-3.5
2023-02-05T01:15:05.990Z,-3.5
2023-02-05T01:16:06.931Z,-3.5
2023-02-05T01:17:06.277Z,-3.4
2023-02-05T01:18:06.333Z,-4
2023-02-05T01:19:05.755Z,-3.4
2023-02-05T01:20:05.538Z,-3.4
2023-02-05T01:21:06.261Z,-3.4
2023-02-05T01:22:06.714Z,-3.5
2023-02-05T01:23:06.355Z,-3.5
2023-02-05T01:24:05.979Z,-3.5
2023-02-05T01:25:06.644Z,-3.5
2023-02-05T01:26:06.241Z,-3.5
2023-02-05T01:27:05.699Z,-3.5
2023-02-05T01:28:06.579Z,-3.5
2023-02-05T01:29:06.153Z,-3.5
2023-02-05T01:30:05.628Z,-3.5
2023-02-05T01:31:06.512Z,-3.5
2023-02-05T01:32:06.411Z,-3.5
2023-02-05T01:33:06.274Z,-3.5
2023-02-05T01:34:06.664Z,-3.6
2023-02-05T01:35:06.349Z,-3.6
2023-02-05T01:36:05.949Z,-3.6
2023-02-05T01:37:06.421Z,-3.6
2023-02-05T01:38:05.843Z,-3.6
2023-02-05T01:39:06.552Z,-3.6
2023-02-05T01:40:05.971Z,-3.6
2023-02-05T01:41:06.580Z,-3.6
2023-02-05T01:42:05.900Z,-3.6
2023-02-05T01:43:06.596Z,-4
2023-02-05T01:44:06.006Z,-3.6
2023-02-05T01:45:05.913Z,-3.6
2023-02-05T01:46:06.390Z,-3.6
2023-02-05T01:47:06.551Z,-4
2023-02-05T01:48:06.474Z,-3.6
2023-02-05T01:49:06.175Z,-3.6
2023-02-05T01:50:06.378Z,-3.6
2023-02-05T01:51:06.044Z,-3.7
2023-02-05T01:52:06.095Z,-3.7
2023-02-05T01:53:05.832Z,-4
2023-02-05T01:54:06.205Z,-3.7
2023-02-05T01:55:05.939Z,-3.7
2023-02-05T01:56:06.554Z,-3.7
2023-02-05T01:57:06.199Z,-3.7
2023-02-05T01:58:05.833Z,-3.7
2023-02-05T01:59:07.938Z,-3.7
2023-02-05T02:00:06.167Z,-3.8
2023-02-05T02:01:06.291Z,-3.7
2023-02-05T02:02:05.730Z,-3.7
2023-02-05T02:03:05.582Z,-3.7
2023-02-05T02:04:06.194Z,-3.8
2023-02-05T02:05:05.826Z,-4
2023-02-05T02:06:06.375Z,-3.8
2023-02-05T02:07:06.097Z,-3.8
2023-02-05T02:08:05.541Z,-4
2023-02-05T02:09:06.514Z,-3.8
2023-02-05T02:10:06.009Z,-3.8
2023-02-05T02:11:06.618Z,-3.8
2023-02-05T02:12:06.133Z,-3.8
2023-02-05T02:13:05.996Z,-3.8
2023-02-05T02:14:06.704Z,-3.8
2023-02-05T02:15:06.412Z,-3.8
2023-02-05T02:16:06.709Z,-4
2023-02-05T02:17:06.108Z,-4
2023-02-05T02:18:06.397Z,-3.8
2023-02-05T02:19:05.883Z,-3.8
2023-02-05T02:20:05.858Z,-4
2023-02-05T02:21:06.217Z,-3.8
2023-02-05T02:22:06.440Z,-4
2023-02-05T02:23:06.513Z,-3.8
2023-02-05T02:24:06.088Z,-3.8
2023-02-05T02:25:06.480Z,-3.9
2023-02-05T02:26:06.269Z,-3.9
2023-02-05T02:27:06.556Z,-3.9
2023-02-05T02:28:05.902Z,-4
2023-02-05T02:29:05.002Z,-3.9
2023-02-05T02:30:06.614Z,-4
2023-02-05T02:31:06.263Z,-3.9
2023-02-05T02:32:06.431Z,-3.9
2023-02-05T02:33:06.363Z,-3.9
2023-02-05T02:34:06.284Z,-3.9
2023-02-05T02:35:05.898Z,-3.9
2023-02-05T02:36:06.458Z,-3.9
2023-02-05T02:37:06.118Z,-3.9
2023-02-05T02:38:05.824Z,-3.9
2023-02-05T02:39:06.496Z,-3.9
2023-02-05T02:40:06.152Z,-3.9
2023-02-05T02:41:05.834Z,-3.9
2023-02-05T02:42:05.714Z,-3.9
2023-02-05T02:43:06.469Z,-3.9
2023-02-05T02:44:04.817Z,-5
2023-02-05T02:45:05.816Z,-3.9
2023-02-05T02:46:06.372Z,-3.9
2023-02-05T02:47:06.412Z,-3.9
2023-02-05T02:48:06.077Z,-4
2023-02-05T02:49:06.760Z,-4
2023-02-05T02:50:06.167Z,-4
2023-02-05T02:51:06.587Z,-4
2023-02-05T02:52:06.275Z,-4
2023-02-05T02:53:06.470Z,-5
2023-02-05T02:54:05.905Z,-4
2023-02-05T02:55:06.223Z,-4
2023-02-05T02:56:05.472Z,-4
2023-02-05T02:57:05.412Z,-4
2023-02-05T02:58:06.153Z,-4
2023-02-05T02:59:06.496Z,-4
2023-02-05T03:00:06.144Z,-4
2023-02-05T03:01:06.323Z,-4
2023-02-05T03:02:05.753Z,-4
2023-02-05T03:03:06.822Z,-4
2023-02-05T03:04:06.292Z,-4
2023-02-05T03:05:05.942Z,-4
2023-02-05T03:06:06.755Z,-4
2023-02-05T03:07:06.667Z,-5
2023-02-05T03:08:06.165Z,-4
2023-02-05T03:09:05.736Z,-4
2023-02-05T03:10:06.467Z,-4
2023-02-05T03:11:05.742Z,-4
2023-02-05T03:12:05.719Z,-4
2023-02-05T03:13:06.504Z,-4
2023-02-05T03:14:06.385Z,-4.1
2023-02-05T03:15:05.995Z,-4.1
2023-02-05T03:16:05.937Z,-4
2023-02-05T03:17:06.323Z,-4
2023-02-05T03:18:05.538Z,-4
2023-02-05T03:19:06.000Z,-4
2023-02-05T03:20:05.932Z,-4
2023-02-05T03:21:05.707Z,-4
2023-02-05T03:22:06.285Z,-4
2023-02-05T03:23:05.919Z,-4
2023-02-05T03:24:06.025Z,-5
2023-02-05T03:25:05.768Z,-4
2023-02-05T03:26:06.416Z,-4
2023-02-05T03:27:06.393Z,-4
2023-02-05T03:28:05.612Z,-4
2023-02-05T03:29:06.731Z,-5
2023-02-05T03:30:06.257Z,-4
2023-02-05T03:31:06.157Z,-4
2023-02-05T03:32:05.822Z,-4
2023-02-05T03:33:06.308Z,-4
2023-02-05T03:34:05.954Z,-4
2023-02-05T03:35:06.057Z,-4
2023-02-05T03:36:06.394Z,-4
2023-02-05T03:37:06.076Z,-5
2023-02-05T03:38:05.616Z,-5
2023-02-05T03:39:05.774Z,-4
2023-02-05T03:40:06.596Z,-4
2023-02-05T03:41:06.130Z,-4
2023-02-05T03:42:05.854Z,-5
2023-02-05T03:43:06.029Z,-4
2023-02-05T03:44:05.671Z,-4
2023-02-05T03:45:05.808Z,-4
2023-02-05T03:46:06.301Z,-4
2023-02-05T03:47:06.253Z,-4
2023-02-05T03:48:05.973Z,-4
2023-02-05T03:49:06.250Z,-4
2023-02-05T03:50:05.836Z,-5
2023-02-05T03:51:06.458Z,-4
2023-02-05T03:52:05.973Z,-4.1
2023-02-05T03:53:05.897Z,-4
2023-02-05T03:54:05.726Z,-4
2023-02-05T03:55:06.248Z,-4.1
2023-02-05T03:56:05.908Z,-4.1
2023-02-05T03:57:06.485Z,-4.1
2023-02-05T03:58:06.290Z,-4.1
2023-02-05T03:59:05.971Z,-4.1
2023-02-05T04:00:06.613Z,-4.1
2023-02-05T04:01:06.024Z,-4.2
2023-02-05T04:02:06.231Z,-4.1
2023-02-05T04:03:05.876Z,-4.2
2023-02-05T04:04:06.520Z,-4.2
2023-02-05T04:05:05.970Z,-4.2
2023-02-05T04:06:06.776Z,-5
2023-02-05T04:07:06.002Z,-4.2
2023-02-05T04:08:05.731Z,-4.2
2023-02-05T04:09:06.224Z,-4.2
2023-02-05T04:10:05.872Z,-4.2
2023-02-05T04:11:06.492Z,-4.2
2023-02-05T04:12:05.734Z,-4.2
2023-02-05T04:13:06.062Z,-5
2023-02-05T04:14:05.777Z,-4.2
2023-02-05T04:15:06.285Z,-5
2023-02-05T04:16:06.194Z,-4.3
2023-02-05T04:17:05.842Z,-4.2
2023-02-05T04:18:05.796Z,-4.2
2023-02-05T04:19:06.125Z,-4.3
2023-02-05T04:20:06.375Z,-4.2
2023-02-05T04:21:05.942Z,-4.2
2023-02-05T04:22:06.398Z,-4.3
2023-02-05T04:23:06.507Z,-4.3
2023-02-05T04:24:06.404Z,-4.2
2023-02-05T04:25:06.069Z,-4.3
2023-02-05T04:26:06.469Z,-5
2023-02-05T04:27:06.509Z,-4.2
2023-02-05T04:28:06.346Z,-4.3
2023-02-05T04:29:06.312Z,-5
2023-02-05T04:30:06.255Z,-5
2023-02-05T04:31:05.901Z,-4.3
2023-02-05T04:32:06.303Z,-4.3
2023-02-05T04:33:05.643Z,-5
2023-02-05T04:34:06.599Z,-4.3
2023-02-05T04:35:06.037Z,-4.3
2023-02-05T04:36:05.559Z,-4.3
2023-02-05T04:37:06.704Z,-4.3
2023-02-05T04:38:06.096Z,-4.3
2023-02-05T04:39:05.995Z,-4.3
2023-02-05T04:40:06.501Z,-4.3
2023-02-05T04:41:06.117Z,-4.3
2023-02-05T04:42:05.567Z,-4.4
2023-02-05T04:43:06.169Z,-4.4
2023-02-05T04:44:05.774Z,-4.4
2023-02-05T04:45:06.433Z,-4.4
2023-02-05T04:46:06.032Z,-4.4
2023-02-05T04:47:06.149Z,-5
2023-02-05T04:48:06.746Z,-4.4
2023-02-05T04:49:06.270Z,-4.4
2023-02-05T04:50:05.871Z,-5
2023-02-05T04:51:06.412Z,-4.4
2023-02-05T04:52:06.075Z,-5
2023-02-05T04:53:05.923Z,-4.4
2023-02-05T04:54:06.545Z,-5
2023-02-05T04:55:06.212Z,-4.4
2023-02-05T04:56:05.886Z,-4.4
2023-02-05T04:57:05.909Z,-4.4
2023-02-05T04:58:05.760Z,-4.4
2023-02-05T04:59:05.908Z,-4.4
2023-02-05T05:00:06.239Z,-4.4
2023-02-05T05:01:06.550Z,-4.4
2023-02-05T05:02:05.811Z,-4.4
2023-02-05T05:03:06.405Z,-4.4
2023-02-05T05:04:05.843Z,-5
2023-02-05T05:05:06.285Z,-4.4
2023-02-05T05:06:06.385Z,-4.4
2023-02-05T05:07:05.809Z,-4.4
2023-02-05T05:08:05.831Z,-4.4
2023-02-05T05:09:06.482Z,-4.4
2023-02-05T05:10:05.978Z,-5
2023-02-05T05:11:06.433Z,-5
2023-02-05T05:12:05.899Z,-4.4
2023-02-05T05:13:06.459Z,-5
2023-02-05T05:14:05.981Z,-4.4
2023-02-05T05:15:06.848Z,-4.4
2023-02-05T05:16:06.836Z,-4.4
2023-02-05T05:17:06.136Z,-4.4
2023-02-05T05:18:05.854Z,-4.4
2023-02-05T05:19:06.204Z,-4.4
2023-02-05T05:20:05.850Z,-4.4
2023-02-05T05:21:06.609Z,-4.4
2023-02-05T05:22:06.026Z,-4.4
2023-02-05T05:23:06.239Z,-4.3
2023-02-05T05:24:06.379Z,-4.4
2023-02-05T05:25:05.828Z,-4.3
2023-02-05T05:26:06.347Z,-4.3
2023-02-05T05:27:06.207Z,-4.3
2023-02-05T05:28:06.530Z,-4.3
2023-02-05T05:29:06.366Z,-4.3
2023-02-05T05:30:06.001Z,-4.3
2023-02-05T05:31:06.309Z,-4.2
2023-02-05T05:32:06.068Z,-4.2
2023-02-05T05:33:06.471Z,-4.2
2023-02-05T05:34:05.922Z,-4.2
2023-02-05T05:35:05.631Z,-4.2
2023-02-05T05:36:06.259Z,-5
2023-02-05T05:37:05.925Z,-4.2
2023-02-05T05:38:06.201Z,-4.2
2023-02-05T05:39:05.840Z,-4.1
2023-02-05T05:40:06.281Z,-4.1
2023-02-05T05:41:05.799Z,-4.1
2023-02-05T05:42:06.450Z,-4.1
2023-02-05T05:43:06.035Z,-5
2023-02-05T05:44:06.278Z,-4.1
2023-02-05T05:45:05.945Z,-4.1
2023-02-05T05:46:06.608Z,-5
2023-02-05T05:47:06.104Z,-4
2023-02-05T05:48:05.699Z,-4
2023-02-05T05:49:06.377Z,-4
2023-02-05T05:50:05.880Z,-4
2023-02-05T05:51:05.756Z,-4
2023-02-05T05:52:06.253Z,-4
2023-02-05T05:53:05.914Z,-4
2023-02-05T05:54:06.691Z,-4
2023-02-05T05:55:06.345Z,-4
2023-02-05T05:56:06.047Z,-4
2023-02-05T05:57:05.678Z,-4
2023-02-05T05:58:07.956Z,-4
2023-02-05T05:59:05.914Z,-4
2023-02-05T06:00:05.747Z,-4
2023-02-05T06:01:05.901Z,-4
2023-02-05T06:02:06.139Z,-3.9
2023-02-05T06:03:06.454Z,-3.9
2023-02-05T06:04:08.404Z,-3.9
2023-02-05T06:05:06.549Z,-4
2023-02-05T06:07:05.558Z,-3.9
2023-02-05T06:08:06.206Z,-3.9
2023-02-05T06:09:05.950Z,-3.9
2023-02-05T06:10:06.283Z,-4
2023-02-05T06:11:06.127Z,-4
2023-02-05T06:12:06.437Z,-4
2023-02-05T06:13:06.343Z,-4
2023-02-05T06:14:05.668Z,-4
2023-02-05T06:15:06.519Z,-4
2023-02-05T06:16:06.514Z,-4
2023-02-05T06:17:06.261Z,-4
2023-02-05T06:18:05.625Z,-4
2023-02-05T06:19:06.553Z,-4
2023-02-05T06:20:06.050Z,-4
2023-02-05T06:21:06.558Z,-4
2023-02-05T06:22:06.498Z,-4
2023-02-05T06:23:05.972Z,-4
2023-02-05T06:24:05.702Z,-4
2023-02-05T06:25:06.177Z,-4
2023-02-05T06:26:05.750Z,-4
2023-02-05T06:27:06.202Z,-4
2023-02-05T06:28:05.692Z,-4
2023-02-05T06:29:06.397Z,-4
2023-02-05T06:30:05.995Z,-4
2023-02-05T06:31:06.676Z,-4
2023-02-05T06:32:06.045Z,-4
2023-02-05T06:33:06.433Z,-4
2023-02-05T06:34:06.157Z,-4
2023-02-05T06:35:05.978Z,-4
2023-02-05T06:36:06.597Z,-4
2023-02-05T06:37:06.199Z,-5
2023-02-05T06:38:06.740Z,-4
2023-02-05T06:39:05.783Z,-4
2023-02-05T06:40:06.429Z,-5
2023-02-05T06:41:05.985Z,-4
2023-02-05T06:42:06.122Z,-4
2023-02-05T06:43:05.790Z,-4
2023-02-05T06:44:05.797Z,-4
2023-02-05T06:45:06.046Z,-4
2023-02-05T06:46:06.426Z,-4
2023-02-05T06:47:05.846Z,-5
2023-02-05T06:48:06.279Z,-5
2023-02-05T06:49:05.972Z,-4
2023-02-05T06:50:06.885Z,-4
2023-02-05T06:51:06.332Z,-5
2023-02-05T06:52:05.977Z,-5
2023-02-05T06:53:06.430Z,-5
2023-02-05T06:54:05.991Z,-4
2023-02-05T06:55:06.294Z,-4
2023-02-05T06:56:06.007Z,-4
2023-02-05T06:57:05.655Z,-3.9
2023-02-05T06:58:06.604Z,-4
2023-02-05T06:59:06.103Z,-3.9
2023-02-05T07:00:05.857Z,-5
2023-02-05T07:01:05.865Z,-3.9
2023-02-05T07:02:06.831Z,-3.9
2023-02-05T07:03:06.351Z,-3.9
2023-02-05T07:04:05.565Z,-3.9
2023-02-05T07:05:06.333Z,-3.9
2023-02-05T07:06:05.927Z,-3.9
2023-02-05T07:07:06.310Z,-3.8
2023-02-05T07:08:06.417Z,-3.9
2023-02-05T07:09:06.155Z,-3.8
2023-02-05T07:10:06.349Z,-4
2023-02-05T07:11:05.747Z,-4
2023-02-05T07:12:06.497Z,-3.8
2023-02-05T07:13:08.024Z,-3.8
2023-02-05T07:14:06.486Z,-3.8
2023-02-05T07:15:05.996Z,-3.8
2023-02-05T07:16:06.452Z,-3.7
2023-02-05T07:17:06.685Z,-3.7
2023-02-05T07:18:06.225Z,-3.7
2023-02-05T07:19:06.322Z,-3.7
2023-02-05T07:20:06.363Z,-3.7
2023-02-05T07:21:06.053Z,-3.6
2023-02-05T07:22:05.801Z,-3.6
2023-02-05T07:23:06.447Z,-4
2023-02-05T07:24:06.038Z,-3.6
2023-02-05T07:25:08.346Z,-3.6
2023-02-05T07:26:05.823Z,-3.6
2023-02-05T07:27:06.534Z,-3.5
2023-02-05T07:28:06.195Z,-3.6
2023-02-05T07:29:05.916Z,-3.6
2023-02-05T07:30:06.669Z,-3.5
2023-02-05T07:31:06.666Z,-3.4
2023-02-05T07:32:05.765Z,-3.4
2023-02-05T07:33:06.119Z,-3.4
2023-02-05T07:34:05.942Z,-3.4
2023-02-05T07:35:05.862Z,-3.3
2023-02-05T07:36:06.530Z,-3.4
2023-02-05T07:37:05.981Z,-3.3
2023-02-05T07:38:05.719Z,-3.3
2023-02-05T07:39:06.290Z,-3.3
2023-02-05T07:40:06.266Z,-3.2
2023-02-05T07:41:04.909Z,-3.2
2023-02-05T07:42:06.382Z,-3.2
2023-02-05T07:43:06.189Z,-3.2
2023-02-05T07:44:05.897Z,-3.2
2023-02-05T07:45:06.717Z,-3.2
2023-02-05T07:46:05.957Z,-3.2
2023-02-05T07:47:05.745Z,-3.2
2023-02-05T07:48:06.504Z,-3.2
2023-02-05T07:49:06.577Z,-3.1
2023-02-05T07:50:06.079Z,-3.1
2023-02-05T07:51:06.534Z,-3.1
2023-02-05T07:52:06.328Z,-3
2023-02-05T07:53:06.623Z,-3.1
2023-02-05T07:54:06.303Z,-3
2023-02-05T07:55:05.861Z,-3
2023-02-05T07:56:06.482Z,-3
2023-02-05T07:57:09.016Z,-3
2023-02-05T07:58:06.429Z,-3
2023-02-05T07:59:05.978Z,-2.9
2023-02-05T08:00:06.639Z,-2.9
2023-02-05T08:01:06.639Z,-2.9
2023-02-05T08:02:06.568Z,-2.8
2023-02-05T08:03:06.209Z,-2.8
2023-02-05T08:04:05.796Z,-2.8
2023-02-05T08:05:04.813Z,-2.8
2023-02-05T08:06:06.556Z,-2.8
2023-02-05T08:07:06.322Z,-2.7
2023-02-05T08:08:05.959Z,-2.7
2023-02-05T08:09:06.357Z,-2.6
2023-02-05T08:10:05.962Z,-2.6
2023-02-05T08:11:06.384Z,-2.6
2023-02-05T08:12:05.759Z,-2.5
2023-02-05T08:13:06.600Z,-2.5
2023-02-05T08:14:05.858Z,-2.4
2023-02-05T08:15:06.395Z,-2.4
2023-02-05T08:16:06.336Z,-2.4
2023-02-05T08:17:06.608Z,-2.3
2023-02-05T08:18:06.165Z,-2.2
2023-02-05T08:19:05.898Z,-2.3
2023-02-05T08:20:06.134Z,-2.2
2023-02-05T08:21:06.441Z,-2
2023-02-05T08:22:05.589Z,-2
2023-02-05T08:23:06.574Z,-2
2023-02-05T08:24:05.749Z,-2
2023-02-05T08:25:06.332Z,-2
2023-02-05T08:26:06.272Z,-2
2023-02-05T08:27:06.627Z,-1.9
2023-02-05T08:28:06.048Z,-1.8
2023-02-05T08:29:05.733Z,-1.7
2023-02-05T08:30:06.366Z,-1.7
2023-02-05T08:31:05.934Z,-1.6
2023-02-05T08:32:05.623Z,-2
2023-02-05T08:33:05.929Z,-2
2023-02-05T08:34:05.746Z,-1.6
2023-02-05T08:35:06.663Z,-1.5
2023-02-05T08:36:06.260Z,-1.4
2023-02-05T08:37:05.923Z,-1.4
2023-02-05T08:38:06.138Z,-1.4
2023-02-05T08:39:06.666Z,-1.4
2023-02-05T08:40:06.278Z,-1.4
2023-02-05T08:41:05.610Z,-1.4
2023-02-05T08:42:06.542Z,-1.3
2023-02-05T08:43:06.176Z,-1.2
2023-02-05T08:44:05.795Z,-1.2
2023-02-05T08:45:06.613Z,-1.1
2023-02-05T08:46:06.727Z,-1
2023-02-05T08:47:05.905Z,-1
2023-02-05T08:48:06.443Z,-0.9
2023-02-05T08:49:06.164Z,-0.8
2023-02-05T08:50:06.732Z,-0.7
2023-02-05T08:51:06.212Z,-0.6
2023-02-05T08:52:05.876Z,-0.6
2023-02-05T08:53:06.604Z,-0.5
2023-02-05T08:54:06.337Z,-0.5
2023-02-05T08:55:05.721Z,-0.4
2023-02-05T08:56:06.721Z,-0.3
2023-02-05T08:57:06.150Z,-0.2
2023-02-05T08:58:06.680Z,0
2023-02-05T08:59:06.426Z,0
2023-02-05T09:00:06.279Z,0
2023-02-05T09:01:06.384Z,0
2023-02-05T09:02:06.486Z,0.1
2023-02-05T09:03:05.983Z,0.2
2023-02-05T09:04:05.878Z,0.3
2023-02-05T09:05:13.175Z,0.3
2023-02-05T09:06:06.620Z,0.4
2023-02-05T09:07:06.130Z,0.5
2023-02-05T09:08:06.355Z,0.6
2023-02-05T09:09:05.810Z,0.6
2023-02-05T09:10:06.364Z,0.8
2023-02-05T09:11:06.532Z,0.8
2023-02-05T09:12:06.014Z,0.8
2023-02-05T09:13:06.505Z,0.8
2023-02-05T09:14:06.386Z,0.9
2023-02-05T09:15:05.904Z,1
2023-02-05T09:16:06.074Z,1
2023-02-05T09:17:05.773Z,1
2023-02-05T09:18:06.323Z,1
2023-02-05T09:19:05.701Z,2
2023-02-05T09:20:06.383Z,2
2023-02-05T09:21:06.004Z,2
2023-02-05T09:22:05.948Z,1.2
2023-02-05T09:23:06.697Z,1.2
2023-02-05T09:24:06.345Z,1.2
2023-02-05T09:25:05.797Z,1.3
2023-02-05T09:26:06.213Z,1.4
2023-02-05T09:27:07.809Z,1.5
2023-02-05T09:28:06.298Z,2
2023-02-05T09:29:05.744Z,1.6
2023-02-05T09:30:06.448Z,1.7
2023-02-05T09:31:06.605Z,1.8
2023-02-05T09:32:06.545Z,1.8
2023-02-05T09:33:06.458Z,1.9
2023-02-05T09:34:05.777Z,1.8
2023-02-05T09:35:06.187Z,1.9
2023-02-05T09:36:05.811Z,1.9
2023-02-05T09:37:06.138Z,1.8
2023-02-05T09:38:06.623Z,1.8
2023-02-05T09:40:36.411Z,1.8
2023-02-05T09:42:05.872Z,1.8
2023-02-05T09:43:06.031Z,1.9
2023-02-05T09:44:06.039Z,1.9
2023-02-05T09:45:06.805Z,1.9
2023-02-05T09:46:06.769Z,2
2023-02-05T09:47:06.158Z,2
2023-02-05T09:48:06.015Z,2.1
2023-02-05T09:49:06.594Z,2.1
2023-02-05T09:50:06.346Z,2.2
2023-02-05T09:51:05.701Z,2.2
2023-02-05T09:52:06.472Z,2.2
2023-02-05T09:53:06.095Z,2.2
2023-02-05T09:54:06.634Z,2.2
2023-02-05T09:55:05.833Z,2.3
2023-02-05T09:56:06.273Z,2.3
2023-02-05T09:57:05.900Z,2.3
2023-02-05T09:58:05.782Z,2.4
2023-02-05T09:59:06.337Z,2.4
2023-02-05T10:00:05.942Z,2.5
2023-02-05T10:01:06.934Z,2.4
2023-02-05T10:02:08.498Z,2.5
2023-02-05T10:03:06.196Z,2.5
2023-02-05T10:04:05.937Z,2.5
2023-02-05T10:05:06.524Z,2.5
2023-02-05T10:06:06.032Z,2.5
2023-02-05T10:07:05.958Z,2.5
2023-02-05T10:08:06.499Z,2.5
2023-02-05T10:09:06.740Z,2.5
2023-02-05T10:10:06.204Z,2.5
2023-02-05T10:11:05.916Z,2.6
2023-02-05T10:12:06.419Z,2.6
2023-02-05T10:13:06.030Z,2.6
2023-02-05T10:14:06.162Z,2.6
2023-02-05T10:15:05.837Z,2.7
2023-02-05T10:16:05.965Z,2.8
2023-02-05T10:17:06.240Z,2.8
2023-02-05T10:18:06.544Z,2.8
2023-02-05T10:19:06.652Z,3
2023-02-05T10:20:08.569Z,2
2023-02-05T10:21:06.612Z,3.1
2023-02-05T10:22:06.176Z,3.2
2023-02-05T10:23:06.690Z,3.2
2023-02-05T10:24:06.058Z,3.2
2023-02-05T10:25:06.367Z,3.2
2023-02-05T10:26:06.155Z,3.3
2023-02-05T10:27:06.408Z,3.4
2023-02-05T10:28:05.970Z,3.4
2023-02-05T10:29:06.282Z,3.4
2023-02-05T10:30:06.201Z,3.5
2023-02-05T10:31:06.134Z,3.5
2023-02-05T10:32:06.327Z,3.5
2023-02-05T10:33:05.792Z,3.6
2023-02-05T10:34:06.344Z,3.6
2023-02-05T10:35:05.959Z,3.6
2023-02-05T10:36:06.418Z,3.7
2023-02-05T10:37:09.063Z,3.8
2023-02-05T10:38:08.129Z,3.8
2023-02-05T10:39:05.480Z,3.8
2023-02-05T10:40:05.789Z,3.8
2023-02-05T10:41:06.625Z,3.8
2023-02-05T10:42:06.068Z,3.8
2023-02-05T10:43:05.768Z,3.8
2023-02-05T10:44:05.824Z,3.7
2023-02-05T10:45:06.038Z,3.6
2023-02-05T10:46:05.900Z,3.6
2023-02-05T10:47:06.589Z,3.7
2023-02-05T10:48:06.096Z,3.7
2023-02-05T10:49:06.288Z,3.7
2023-02-05T10:50:06.022Z,3.7
2023-02-05T10:51:06.706Z,3.7
2023-02-05T10:52:06.633Z,3.7
2023-02-05T10:53:06.144Z,3.7
2023-02-05T10:54:05.898Z,3.7
2023-02-05T10:55:06.473Z,3.6
2023-02-05T10:56:05.985Z,3.6
2023-02-05T10:57:05.876Z,3.6
2023-02-05T10:58:06.400Z,3.6
2023-02-05T10:59:05.931Z,3.8
2023-02-05T11:00:06.776Z,3.8
2023-02-05T11:01:06.334Z,3.8
2023-02-05T11:02:05.729Z,3.8
2023-02-05T11:03:06.159Z,4
2023-02-05T11:04:05.732Z,3.8
2023-02-05T11:05:06.072Z,3.8
2023-02-05T11:06:05.621Z,3.8
2023-02-05T11:07:06.419Z,4
2023-02-05T11:08:06.245Z,3.8
2023-02-05T11:09:06.069Z,3.8
2023-02-05T11:10:06.477Z,3.9
2023-02-05T11:11:06.436Z,3.9
2023-02-05T11:12:06.255Z,3.8
2023-02-05T11:13:05.902Z,3.8
2023-02-05T11:14:06.343Z,3.8
2023-02-05T11:15:06.346Z,3.8
2023-02-05T11:16:06.686Z,3.8
2023-02-05T11:17:05.765Z,3.8
2023-02-05T11:18:06.427Z,4
2023-02-05T11:19:06.115Z,4
2023-02-05T11:20:05.767Z,3.8
2023-02-05T11:21:06.339Z,3.8
2023-02-05T11:22:05.731Z,3.8
2023-02-05T11:23:06.536Z,3.7
2023-02-05T11:24:06.143Z,3.7
2023-02-05T11:25:05.775Z,3.7
2023-02-05T11:26:06.448Z,3.7
2023-02-05T11:27:06.048Z,3.7
2023-02-05T11:28:06.848Z,3.6
2023-02-05T11:29:05.828Z,4
2023-02-05T11:30:07.081Z,3.5
2023-02-05T11:31:05.966Z,3.5
2023-02-05T11:32:06.689Z,3.5
2023-02-05T11:33:05.960Z,3.4
2023-02-05T11:34:06.543Z,3.4
2023-02-05T11:35:05.946Z,3.4
2023-02-05T11:36:06.415Z,3.4
2023-02-05T11:37:06.103Z,3.4
2023-02-05T11:38:07.892Z,3.3
2023-02-05T11:39:06.489Z,3.3
2023-02-05T11:40:06.011Z,3.3
2023-02-05T11:41:06.058Z,4
2023-02-05T11:42:06.624Z,3.3
2023-02-05T11:43:06.519Z,3.3
2023-02-05T11:44:06.442Z,3.2
2023-02-05T11:45:06.187Z,3.2
2023-02-05T11:46:05.949Z,3.2
2023-02-05T11:47:06.322Z,3.2
2023-02-05T11:48:06.003Z,3.2
2023-02-05T11:49:06.539Z,3.2
2023-02-05T11:50:06.274Z,3
2023-02-05T11:51:05.936Z,3.2
2023-02-05T11:52:06.634Z,3.2
2023-02-05T11:53:06.158Z,3.2
2023-02-05T11:54:05.761Z,3.3
2023-02-05T11:55:06.484Z,3
2023-02-05T11:56:06.006Z,3.3
2023-02-05T11:57:06.703Z,3
2023-02-05T11:58:06.318Z,3.4
2023-02-05T11:59:06.046Z,3
2023-02-05T12:00:06.727Z,3.4
2023-02-05T12:01:06.373Z,3
2023-02-05T12:02:06.206Z,3.4
2023-02-05T12:03:06.636Z,3.4
2023-02-05T12:04:06.622Z,3.4
2023-02-05T12:05:06.080Z,4
2023-02-05T12:06:06.755Z,4
2023-02-05T12:07:06.280Z,3.4
2023-02-05T12:08:07.069Z,3.5
2023-02-05T12:09:06.291Z,3.5
2023-02-05T12:10:05.985Z,3.6
2023-02-05T12:11:06.637Z,3.6
2023-02-05T12:12:06.343Z,3.6
2023-02-05T12:13:06.605Z,3.6
2023-02-05T12:14:06.102Z,3.6
2023-02-05T12:15:06.640Z,3.6
2023-02-05T12:16:06.377Z,3.6
2023-02-05T12:17:05.745Z,4
2023-02-05T12:18:06.043Z,3.6
2023-02-05T12:19:06.618Z,3.7
2023-02-05T12:20:06.161Z,3.6
2023-02-05T12:21:05.780Z,3.7
2023-02-05T12:22:06.371Z,3.6
2023-02-05T12:23:05.962Z,3.6
2023-02-05T12:24:06.575Z,3.7
2023-02-05T12:25:06.139Z,3.6
2023-02-05T12:26:05.780Z,3.7
2023-02-05T12:27:06.413Z,4
2023-02-05T12:28:06.294Z,3.8
2023-02-05T12:29:05.735Z,4
2023-02-05T12:30:04.893Z,3.8
2023-02-05T12:31:05.850Z,3.7
2023-02-05T12:32:05.796Z,3.7
2023-02-05T12:33:06.365Z,3.7
2023-02-05T12:34:06.039Z,3.7
2023-02-05T12:35:06.317Z,3.7
2023-02-05T12:36:05.892Z,3.7
2023-02-05T12:37:06.342Z,3.7
2023-02-05T12:38:05.994Z,3.7
2023-02-05T12:39:07.530Z,3.7
2023-02-05T12:40:05.954Z,3.7
2023-02-05T12:41:06.588Z,3.8
2023-02-05T12:42:06.171Z,3.7
2023-02-05T12:43:05.698Z,3.8
2023-02-05T12:44:06.292Z,3.7
2023-02-05T12:45:06.092Z,3.7
2023-02-05T12:46:06.759Z,3.7
2023-02-05T12:47:05.865Z,3.7
2023-02-05T12:48:06.349Z,3.7
2023-02-05T12:49:11.883Z,3.7
2023-02-05T12:50:06.349Z,3.7
2023-02-05T12:51:05.735Z,3.7
2023-02-05T12:52:06.399Z,3.6
2023-02-05T12:53:06.040Z,4
2023-02-05T12:54:05.984Z,3.6
2023-02-05T12:55:06.836Z,3.6
2023-02-05T12:56:05.794Z,3.6
2023-02-05T12:57:06.213Z,3.6
2023-02-05T12:58:05.882Z,3.6
2023-02-05T12:59:06.284Z,3.7
2023-02-05T13:00:06.140Z,3.7
2023-02-05T13:01:06.981Z,3.7
2023-02-05T13:02:06.266Z,3.7
2023-02-05T13:03:05.883Z,3.8
2023-02-05T13:04:06.764Z,4
2023-02-05T13:05:06.385Z,3.8
2023-02-05T13:06:06.131Z,3.7
2023-02-05T13:07:06.445Z,3.7
2023-02-05T13:08:06.178Z,3.8
2023-02-05T13:09:05.860Z,4
2023-02-05T13:10:06.275Z,3.7
2023-02-05T13:11:06.039Z,3.7
2023-02-05T13:12:05.931Z,3.7
2023-02-05T13:13:06.474Z,3.8
2023-02-05T13:14:06.601Z,3.8
2023-02-05T13:15:06.023Z,3.7
2023-02-05T13:16:06.146Z,3.8
2023-02-05T13:17:06.682Z,3.8
2023-02-05T13:18:05.745Z,3.8
2023-02-05T13:19:06.452Z,3.8
2023-02-05T13:20:06.083Z,3.8
2023-02-05T13:21:05.474Z,3.8
2023-02-05T13:22:06.223Z,3.8
2023-02-05T13:23:05.878Z,3.8
2023-02-05T13:24:06.492Z,3.8
2023-02-05T13:25:06.184Z,3.8
2023-02-05T13:26:05.899Z,3.8
2023-02-05T13:27:06.424Z,3.8
2023-02-05T13:28:06.760Z,3.8
2023-02-05T13:29:05.761Z,3.8
2023-02-05T13:30:09.001Z,3.9
2023-02-05T13:31:06.013Z,3.9
2023-02-05T13:32:18.686Z,3.8
2023-02-05T13:33:05.633Z,3.8
2023-02-05T13:34:06.305Z,3.8
2023-02-05T13:35:05.818Z,3.9
2023-02-05T13:36:06.487Z,3.9
2023-02-05T13:37:05.884Z,3.9
2023-02-05T13:38:06.615Z,3.9
2023-02-05T13:39:06.644Z,4
2023-02-05T13:40:06.222Z,4
2023-02-05T13:41:06.649Z,3.9
2023-02-05T13:42:06.385Z,3.9
2023-02-05T13:43:06.541Z,3.9
2023-02-05T13:44:05.982Z,3.9
2023-02-05T13:45:06.605Z,3.9
2023-02-05T13:46:06.178Z,3.9